Weather reports worldwide

Advertisment
Briancon, France (7593): temperature & dewpoint: 07.07.2020 07:00:00 - 13.07.2020 07:00:00 (CEST)Briancon, France (7593): wind speed: 07.07.2020 07:00:00 - 13.07.2020 07:00:00 (CEST)Briancon, France (7593): wind direction: 07.07.2020 07:00:00 - 13.07.2020 07:00:00 (CEST)Briancon, France (7593): precipitation: 07.07.2020 07:00:00 - 13.07.2020 07:00:00 (CEST)
Date & Time tt [°C] td [°C] ff [km/h] ff [kn] dd rr [mm]
13.07.2020 07:00:00 - - - - - -
13.07.2020 06:00:00 13,3 10,3 2 1 SE 0,0
13.07.2020 05:00:00 13,5 10,3 3 2 ESE 0,0
13.07.2020 04:00:00 14,3 10,7 2 1 S 0,0
13.07.2020 03:00:00 15,1 10,9 3 1 NW 0,0
13.07.2020 02:00:00 15,7 11,1 3 1 SW 0,0
13.07.2020 01:00:00 16,7 11,2 5 3 SE 0,0
13.07.2020 00:00:00 17,3 11,1 8 4 ENE 0,0
12.07.2020 23:00:00 17,6 10,9 5 3 SW 0,0
12.07.2020 22:00:00 18,7 10,8 10 5 ENE 0,0
12.07.2020 21:00:00 19,3 10,8 17 9 NE 0,0
12.07.2020 20:00:00 20,1 11,0 17 9 NE 0,0
12.07.2020 19:00:00 21,3 10,7 22 12 NE 0,0
12.07.2020 18:00:00 22,0 10,8 20 11 NNE 0,0
12.07.2020 17:00:00 22,0 10,5 16 9 NNE 0,0
12.07.2020 16:00:00 24,1 9,3 19 11 NE 0,0
12.07.2020 15:00:00 28,0 7,8 17 9 WSW 0,0
12.07.2020 14:00:00 27,1 7,5 12 7 W 0,0
12.07.2020 13:00:00 24,4 7,5 9 5 NNE 0,0
12.07.2020 12:00:00 22,5 9,3 15 8 NNE 0,0
12.07.2020 11:00:00 20,7 8,7 15 8 NNE 0,0
12.07.2020 10:00:00 19,1 7,8 15 8 NNE 0,0
12.07.2020 09:00:00 17,2 8,3 6 4 WSW 0,0
12.07.2020 08:00:00 14,1 8,1 3 2 SSW 0,0
12.07.2020 07:00:00 11,4 7,1 5 3 S 0,0
12.07.2020 06:00:00 10,9 6,2 3 2 SSE 0,0
12.07.2020 05:00:00 10,7 5,4 3 2 SSW 0,0
12.07.2020 04:00:00 11,1 4,8 3 1 WSW 0,0
12.07.2020 03:00:00 11,3 4,3 2 1 SSE 0,0
12.07.2020 02:00:00 11,8 4,0 4 2 NE 0,0
12.07.2020 01:00:00 13,9 3,9 11 6 NE 0,0
12.07.2020 00:00:00 15,1 3,9 16 9 ENE 0,0
11.07.2020 23:00:00 16,5 4,2 10 5 ENE 0,0
11.07.2020 22:00:00 17,9 4,1 9 5 NE 0,0
11.07.2020 21:00:00 19,1 4,8 11 6 NE 0,0
11.07.2020 20:00:00 21,4 6,1 13 7 NNE 0,0
11.07.2020 19:00:00 23,3 6,5 8 5 N 0,0
11.07.2020 18:00:00 24,3 7,0 9 5 N 0,0
11.07.2020 17:00:00 22,2 7,6 13 7 N 0,0
11.07.2020 16:00:00 22,5 8,2 13 7 NNE 0,0
11.07.2020 15:00:00 24,6 9,7 7 4 N 0,0
11.07.2020 14:00:00 22,3 9,8 11 6 NNE 0,0
11.07.2020 13:00:00 23,1 11,8 6 3 NNW 0,0
11.07.2020 12:00:00 22,6 11,6 6 3 SSW 0,0
11.07.2020 11:00:00 20,6 12,8 6 3 SW 0,0
11.07.2020 10:00:00 17,6 11,8 3 1 W 0,0
11.07.2020 09:00:00 14,8 12,1 2 1 WNW 0,0
11.07.2020 08:00:00 13,4 11,5 2 1 WSW 0,0
11.07.2020 07:00:00 11,2 10,9 3 1 NE 0,0
11.07.2020 06:00:00 10,4 9,9 2 1 NNE 0,0
11.07.2020 05:00:00 11,1 10,6 0 0 N 0,0
11.07.2020 04:00:00 11,3 10,7 3 1 E 0,0
11.07.2020 03:00:00 12,7 11,9 8 4 NE 0,0
11.07.2020 02:00:00 13,3 12,4 8 5 ENE 0,0
11.07.2020 01:00:00 13,7 12,8 4 2 NE 0,0
11.07.2020 00:00:00 14,4 13,3 4 2 E 0,0
10.07.2020 23:00:00 14,6 13,5 9 5 NE 1,8
10.07.2020 22:00:00 16,2 12,0 10 6 S 0,0
10.07.2020 21:00:00 17,0 11,3 5 3 E 0,0
10.07.2020 20:00:00 18,1 10,5 19 10 WSW 0,0
10.07.2020 19:00:00 22,3 8,8 16 9 WSW 0,2
10.07.2020 18:00:00 24,3 10,2 9 5 W 0,0
10.07.2020 17:00:00 27,2 7,6 12 7 WSW 0,0
10.07.2020 16:00:00 27,7 10,0 5 3 NNE 0,0
10.07.2020 15:00:00 29,6 7,5 19 10 SW 0,0
10.07.2020 14:00:00 27,8 8,1 21 11 WSW 0,0
10.07.2020 13:00:00 29,0 8,6 22 12 WSW 0,0
10.07.2020 12:00:00 26,2 8,2 16 9 W 0,0
10.07.2020 11:00:00 23,8 9,8 4 2 S 0,0
10.07.2020 10:00:00 21,1 10,0 4 2 W 0,0
10.07.2020 09:00:00 18,0 9,1 3 2 W 0,0
10.07.2020 08:00:00 14,8 7,6 2 1 NNW 0,0
10.07.2020 07:00:00 12,2 8,1 2 1 S 0,0
10.07.2020 06:00:00 11,7 8,0 3 2 E 0,0
10.07.2020 05:00:00 12,4 8,3 3 2 E 0,0
10.07.2020 04:00:00 12,8 8,1 0 0 N 0,0
10.07.2020 03:00:00 13,7 8,5 2 1 SSW 0,0
10.07.2020 02:00:00 14,4 8,6 0 0 N 0,0
10.07.2020 01:00:00 15,2 9,1 3 1 E 0,0
10.07.2020 00:00:00 16,8 9,7 0 0 N 0,0
09.07.2020 23:00:00 17,9 10,3 3 1 ESE 0,0
09.07.2020 22:00:00 20,4 9,9 4 2 SSW 0,0
09.07.2020 21:00:00 23,7 9,3 6 4 SSE 0,0
09.07.2020 20:00:00 26,2 8,7 5 3 WNW 0,0
09.07.2020 19:00:00 26,8 8,2 6 4 SSW 0,0
09.07.2020 18:00:00 27,1 7,5 7 4 SW 0,0
09.07.2020 17:00:00 29,2 7,1 19 10 SW 0,0
09.07.2020 16:00:00 31,0 7,4 21 11 WSW 0,0
09.07.2020 15:00:00 30,6 6,5 21 12 WSW 0,0
09.07.2020 14:00:00 29,5 5,5 21 11 WSW 0,0
09.07.2020 13:00:00 29,6 2,0 10 6 SW 0,0
09.07.2020 12:00:00 27,5 2,5 5 3 W 0,0
09.07.2020 11:00:00 23,9 7,9 4 2 W 0,0
09.07.2020 10:00:00 21,0 6,1 2 1 WSW 0,0
09.07.2020 09:00:00 17,2 6,7 2 1 SSW 0,0
09.07.2020 08:00:00 13,9 6,3 2 1 W 0,0
09.07.2020 07:00:00 11,0 6,5 0 0 N 0,0
09.07.2020 06:00:00 11,3 6,4 4 2 ENE 0,0
09.07.2020 05:00:00 11,4 6,5 3 2 E 0,0
09.07.2020 04:00:00 11,8 7,1 0 0 N 0,0
09.07.2020 03:00:00 12,9 7,3 3 1 S 0,0
09.07.2020 02:00:00 13,4 8,5 0 0 N 0,0
09.07.2020 01:00:00 14,3 8,3 3 2 S 0,0
09.07.2020 00:00:00 15,3 9,0 0 0 N 0,0
08.07.2020 23:00:00 16,9 9,6 0 0 N 0,0
08.07.2020 22:00:00 18,5 9,8 3 1 NE 0,0
08.07.2020 21:00:00 20,6 10,7 3 2 E 0,0
08.07.2020 20:00:00 24,7 10,2 13 7 WSW 0,0
08.07.2020 19:00:00 26,1 10,7 14 7 W 0,0
08.07.2020 18:00:00 27,5 10,7 20 11 WSW 0,0
08.07.2020 17:00:00 28,1 11,2 22 12 WSW 0,0
08.07.2020 16:00:00 27,5 10,7 24 13 WSW 0,0
08.07.2020 15:00:00 27,3 10,1 24 13 WSW 0,0
08.07.2020 14:00:00 25,9 10,5 21 11 W 0,0
08.07.2020 13:00:00 24,1 9,3 20 11 W 0,0
08.07.2020 12:00:00 21,5 10,0 19 10 W 0,0
08.07.2020 11:00:00 21,5 9,7 5 3 WNW 0,0
08.07.2020 10:00:00 19,4 9,3 4 2 SW 0,0
08.07.2020 09:00:00 16,4 8,9 3 2 W 0,0
08.07.2020 08:00:00 13,7 8,3 2 1 W 0,0
08.07.2020 07:00:00 10,5 7,7 0 0 N 0,0
08.07.2020 06:00:00 10,2 7,4 2 1 E 0,0
08.07.2020 05:00:00 10,3 7,4 2 1 ENE 0,0
08.07.2020 04:00:00 11,1 7,6 2 1 NNE 0,0
08.07.2020 03:00:00 11,7 7,6 2 1 E 0,0
08.07.2020 02:00:00 12,4 7,7 2 1 E 0,0
08.07.2020 01:00:00 13,5 7,9 2 1 SE 0,0
08.07.2020 00:00:00 14,9 8,6 2 1 S 0,0
07.07.2020 23:00:00 17,7 8,8 8 4 NE 0,0
07.07.2020 22:00:00 19,4 9,0 11 6 NE 0,0
07.07.2020 21:00:00 21,0 7,6 12 6 NNE 0,0
07.07.2020 20:00:00 23,8 7,0 13 7 S 0,0
07.07.2020 19:00:00 26,2 7,7 16 9 W 0,0
07.07.2020 18:00:00 26,7 8,2 21 12 WSW 0,0
07.07.2020 17:00:00 27,1 7,5 24 13 WSW 0,0
07.07.2020 16:00:00 27,3 7,2 24 13 WSW 0,0
07.07.2020 15:00:00 27,0 7,4 21 11 WSW 0,0
07.07.2020 14:00:00 25,2 3,2 9 5 NNW 0,0
07.07.2020 13:00:00 23,3 2,2 20 11 N 0,0
07.07.2020 12:00:00 23,0 0,7 14 8 NNE 0,0
07.07.2020 11:00:00 21,8 -0,9 19 10 NNE 0,0
07.07.2020 10:00:00 18,6 -2,4 6 4 S 0,0
07.07.2020 09:00:00 14,9 -1,7 2 1 SW 0,0
07.07.2020 08:00:00 11,0 -1,4 3 2 S 0,0
07.07.2020 07:00:00 7,9 -3,9 2 1 E 0,0

tt = temperature
td = dewpoint
ff = wind speed
dd = wind direction
rr = precipitation

Next stations